sensor_id;sensor_type;location;lat;lon;timestamp;P1;durP1;ratioP1;P2;durP2;ratioP2
52412;SDS011;38339;53.234;6.578;2022-10-22T00:02:07;15.45;;;9.95;;
52412;SDS011;38339;53.234;6.578;2022-10-22T00:04:33;15.25;;;10.05;;
52412;SDS011;38339;53.234;6.578;2022-10-22T00:06:59;16.55;;;9.77;;
52412;SDS011;38339;53.234;6.578;2022-10-22T00:09:24;13.80;;;9.73;;
52412;SDS011;38339;53.234;6.578;2022-10-22T00:11:50;16.73;;;9.75;;
52412;SDS011;38339;53.234;6.578;2022-10-22T00:14:16;14.00;;;9.50;;
52412;SDS011;38339;53.234;6.578;2022-10-22T00:16:42;14.05;;;9.65;;
52412;SDS011;38339;53.234;6.578;2022-10-22T00:19:08;14.27;;;9.20;;
52412;SDS011;38339;53.234;6.578;2022-10-22T00:21:35;13.35;;;9.95;;
52412;SDS011;38339;53.234;6.578;2022-10-22T00:24:02;15.07;;;9.10;;
52412;SDS011;38339;53.234;6.578;2022-10-22T00:26:28;13.57;;;9.63;;
52412;SDS011;38339;53.234;6.578;2022-10-22T00:28:53;15.23;;;10.07;;
52412;SDS011;38339;53.234;6.578;2022-10-22T00:31:19;11.98;;;9.13;;
52412;SDS011;38339;53.234;6.578;2022-10-22T00:33:47;11.90;;;9.23;;
52412;SDS011;38339;53.234;6.578;2022-10-22T00:36:13;12.65;;;9.05;;
52412;SDS011;38339;53.234;6.578;2022-10-22T00:38:40;15.88;;;9.45;;
52412;SDS011;38339;53.234;6.578;2022-10-22T00:41:06;14.60;;;9.15;;
52412;SDS011;38339;53.234;6.578;2022-10-22T00:43:33;12.32;;;9.05;;
52412;SDS011;38339;53.234;6.578;2022-10-22T00:46:17;16.25;;;9.40;;
52412;SDS011;38339;53.234;6.578;2022-10-22T00:48:42;16.48;;;9.75;;
52412;SDS011;38339;53.234;6.578;2022-10-22T00:51:08;14.38;;;9.57;;
52412;SDS011;38339;53.234;6.578;2022-10-22T00:53:38;13.27;;;9.38;;
52412;SDS011;38339;53.234;6.578;2022-10-22T00:56:07;16.63;;;9.73;;
52412;SDS011;38339;53.234;6.578;2022-10-22T00:58:35;12.90;;;9.38;;
52412;SDS011;38339;53.234;6.578;2022-10-22T01:01:04;15.02;;;10.00;;
52412;SDS011;38339;53.234;6.578;2022-10-22T01:03:31;13.13;;;10.20;;
52412;SDS011;38339;53.234;6.578;2022-10-22T01:05:58;12.93;;;9.52;;
52412;SDS011;38339;53.234;6.578;2022-10-22T01:11:41;14.45;;;9.57;;
52412;SDS011;38339;53.234;6.578;2022-10-22T01:21:52;15.18;;;9.48;;
52412;SDS011;38339;53.234;6.578;2022-10-22T01:24:37;11.98;;;9.07;;
52412;SDS011;38339;53.234;6.578;2022-10-22T01:27:25;15.50;;;9.40;;
52412;SDS011;38339;53.234;6.578;2022-10-22T01:30:03;14.75;;;9.05;;
52412;SDS011;38339;53.234;6.578;2022-10-22T01:32:33;13.48;;;9.35;;
52412;SDS011;38339;53.234;6.578;2022-10-22T01:35:13;12.07;;;8.80;;
52412;SDS011;38339;53.234;6.578;2022-10-22T01:37:51;12.95;;;9.13;;
52412;SDS011;38339;53.234;6.578;2022-10-22T01:40:20;15.43;;;9.25;;
52412;SDS011;38339;53.234;6.578;2022-10-22T01:43:00;15.02;;;9.07;;
52412;SDS011;38339;53.234;6.578;2022-10-22T01:45:29;16.00;;;9.45;;
52412;SDS011;38339;53.234;6.578;2022-10-22T01:48:11;13.75;;;8.85;;
52412;SDS011;38339;53.234;6.578;2022-10-22T01:51:41;14.63;;;9.35;;
52412;SDS011;38339;53.234;6.578;2022-10-22T01:57:04;15.05;;;9.00;;
52412;SDS011;38339;53.234;6.578;2022-10-22T02:02:48;15.18;;;9.35;;
52412;SDS011;38339;53.234;6.578;2022-10-22T02:05:20;13.63;;;8.98;;
52412;SDS011;38339;53.234;6.578;2022-10-22T02:08:04;14.88;;;9.18;;
52412;SDS011;38339;53.234;6.578;2022-10-22T02:10:36;15.55;;;8.82;;
52412;SDS011;38339;53.234;6.578;2022-10-22T02:13:03;18.25;;;9.02;;
52412;SDS011;38339;53.234;6.578;2022-10-22T02:15:37;14.85;;;9.60;;
52412;SDS011;38339;53.234;6.578;2022-10-22T02:18:06;14.63;;;9.80;;
52412;SDS011;38339;53.234;6.578;2022-10-22T02:20:34;12.20;;;9.00;;
52412;SDS011;38339;53.234;6.578;2022-10-22T02:23:02;17.48;;;9.10;;
52412;SDS011;38339;53.234;6.578;2022-10-22T02:25:31;14.23;;;8.73;;
52412;SDS011;38339;53.234;6.578;2022-10-22T02:28:16;16.75;;;9.32;;
52412;SDS011;38339;53.234;6.578;2022-10-22T02:30:54;13.80;;;9.07;;
52412;SDS011;38339;53.234;6.578;2022-10-22T02:33:29;12.57;;;8.70;;
52412;SDS011;38339;53.234;6.578;2022-10-22T02:36:03;14.00;;;8.88;;
52412;SDS011;38339;53.234;6.578;2022-10-22T02:38:30;13.48;;;8.65;;
52412;SDS011;38339;53.234;6.578;2022-10-22T02:40:58;21.17;;;9.48;;
52412;SDS011;38339;53.234;6.578;2022-10-22T02:43:24;12.82;;;8.30;;
52412;SDS011;38339;53.234;6.578;2022-10-22T02:45:50;12.60;;;8.65;;
52412;SDS011;38339;53.234;6.578;2022-10-22T02:48:16;16.23;;;8.65;;
52412;SDS011;38339;53.234;6.578;2022-10-22T02:50:41;15.63;;;9.25;;
52412;SDS011;38339;53.234;6.578;2022-10-22T02:53:07;15.20;;;8.55;;
52412;SDS011;38339;53.234;6.578;2022-10-22T02:55:33;13.55;;;8.48;;
52412;SDS011;38339;53.234;6.578;2022-10-22T02:57:58;13.63;;;8.27;;
52412;SDS011;38339;53.234;6.578;2022-10-22T03:00:24;13.48;;;8.73;;
52412;SDS011;38339;53.234;6.578;2022-10-22T03:02:49;14.68;;;8.38;;
52412;SDS011;38339;53.234;6.578;2022-10-22T03:05:15;13.57;;;8.02;;
52412;SDS011;38339;53.234;6.578;2022-10-22T03:07:41;14.57;;;8.38;;
52412;SDS011;38339;53.234;6.578;2022-10-22T03:10:07;17.13;;;8.18;;
52412;SDS011;38339;53.234;6.578;2022-10-22T03:12:32;13.55;;;8.68;;
52412;SDS011;38339;53.234;6.578;2022-10-22T03:14:58;14.35;;;8.35;;
52412;SDS011;38339;53.234;6.578;2022-10-22T03:17:24;13.88;;;8.23;;
52412;SDS011;38339;53.234;6.578;2022-10-22T03:19:49;14.10;;;8.88;;
52412;SDS011;38339;53.234;6.578;2022-10-22T03:22:25;15.35;;;8.10;;
52412;SDS011;38339;53.234;6.578;2022-10-22T03:24:54;14.15;;;8.55;;
52412;SDS011;38339;53.234;6.578;2022-10-22T03:27:24;16.70;;;9.35;;
52412;SDS011;38339;53.234;6.578;2022-10-22T03:29:52;14.43;;;8.18;;
52412;SDS011;38339;53.234;6.578;2022-10-22T03:32:24;12.57;;;7.75;;
52412;SDS011;38339;53.234;6.578;2022-10-22T03:34:49;17.80;;;8.35;;
52412;SDS011;38339;53.234;6.578;2022-10-22T03:37:15;14.48;;;7.95;;
52412;SDS011;38339;53.234;6.578;2022-10-22T03:39:41;12.25;;;8.30;;
52412;SDS011;38339;53.234;6.578;2022-10-22T03:42:07;16.23;;;8.85;;
52412;SDS011;38339;53.234;6.578;2022-10-22T03:44:34;14.50;;;8.30;;
52412;SDS011;38339;53.234;6.578;2022-10-22T03:47:02;15.65;;;8.80;;
52412;SDS011;38339;53.234;6.578;2022-10-22T03:49:28;14.60;;;8.77;;
52412;SDS011;38339;53.234;6.578;2022-10-22T03:51:54;15.43;;;8.63;;
52412;SDS011;38339;53.234;6.578;2022-10-22T03:54:19;15.85;;;8.90;;
52412;SDS011;38339;53.234;6.578;2022-10-22T03:56:45;15.90;;;8.93;;
52412;SDS011;38339;53.234;6.578;2022-10-22T03:59:11;16.70;;;8.88;;
52412;SDS011;38339;53.234;6.578;2022-10-22T04:01:37;15.88;;;9.05;;
52412;SDS011;38339;53.234;6.578;2022-10-22T04:04:03;14.98;;;8.93;;
52412;SDS011;38339;53.234;6.578;2022-10-22T04:06:29;17.02;;;9.23;;
52412;SDS011;38339;53.234;6.578;2022-10-22T04:08:54;13.02;;;8.82;;
52412;SDS011;38339;53.234;6.578;2022-10-22T04:11:20;14.73;;;9.25;;
52412;SDS011;38339;53.234;6.578;2022-10-22T04:13:46;13.38;;;9.23;;
52412;SDS011;38339;53.234;6.578;2022-10-22T04:16:16;16.88;;;9.60;;
52412;SDS011;38339;53.234;6.578;2022-10-22T04:18:44;15.20;;;8.98;;
52412;SDS011;38339;53.234;6.578;2022-10-22T04:21:12;17.02;;;9.23;;
52412;SDS011;38339;53.234;6.578;2022-10-22T04:23:42;13.20;;;8.60;;
52412;SDS011;38339;53.234;6.578;2022-10-22T04:26:10;20.52;;;9.10;;
52412;SDS011;38339;53.234;6.578;2022-10-22T04:28:35;14.25;;;9.07;;
52412;SDS011;38339;53.234;6.578;2022-10-22T04:31:06;17.25;;;10.10;;
52412;SDS011;38339;53.234;6.578;2022-10-22T04:33:33;17.10;;;9.23;;
52412;SDS011;38339;53.234;6.578;2022-10-22T04:35:59;12.65;;;9.02;;
52412;SDS011;38339;53.234;6.578;2022-10-22T04:38:24;15.73;;;8.57;;
52412;SDS011;38339;53.234;6.578;2022-10-22T04:40:50;13.95;;;9.10;;
52412;SDS011;38339;53.234;6.578;2022-10-22T04:43:16;15.63;;;9.48;;
52412;SDS011;38339;53.234;6.578;2022-10-22T04:45:41;13.40;;;9.32;;
52412;SDS011;38339;53.234;6.578;2022-10-22T04:48:07;15.52;;;9.60;;
52412;SDS011;38339;53.234;6.578;2022-10-22T04:50:33;17.38;;;10.32;;
52412;SDS011;38339;53.234;6.578;2022-10-22T04:52:59;15.95;;;9.95;;
52412;SDS011;38339;53.234;6.578;2022-10-22T04:55:25;15.82;;;9.60;;
52412;SDS011;38339;53.234;6.578;2022-10-22T04:57:50;16.88;;;10.00;;
52412;SDS011;38339;53.234;6.578;2022-10-22T05:00:16;15.35;;;8.98;;
52412;SDS011;38339;53.234;6.578;2022-10-22T05:02:42;21.75;;;9.57;;
52412;SDS011;38339;53.234;6.578;2022-10-22T05:05:08;16.85;;;10.48;;
52412;SDS011;38339;53.234;6.578;2022-10-22T05:07:34;16.02;;;9.98;;
52412;SDS011;38339;53.234;6.578;2022-10-22T05:10:00;15.55;;;10.20;;
52412;SDS011;38339;53.234;6.578;2022-10-22T05:12:26;16.90;;;9.82;;
52412;SDS011;38339;53.234;6.578;2022-10-22T05:14:53;16.50;;;10.68;;
52412;SDS011;38339;53.234;6.578;2022-10-22T05:17:20;17.33;;;10.38;;
52412;SDS011;38339;53.234;6.578;2022-10-22T05:19:45;19.00;;;10.18;;
52412;SDS011;38339;53.234;6.578;2022-10-22T05:22:11;18.38;;;9.90;;
52412;SDS011;38339;53.234;6.578;2022-10-22T05:24:36;17.95;;;11.05;;
52412;SDS011;38339;53.234;6.578;2022-10-22T05:27:02;15.25;;;9.80;;
52412;SDS011;38339;53.234;6.578;2022-10-22T05:29:28;17.60;;;10.02;;
52412;SDS011;38339;53.234;6.578;2022-10-22T05:31:54;15.98;;;10.45;;
52412;SDS011;38339;53.234;6.578;2022-10-22T05:34:20;16.80;;;10.55;;
52412;SDS011;38339;53.234;6.578;2022-10-22T05:36:46;14.98;;;10.35;;
52412;SDS011;38339;53.234;6.578;2022-10-22T05:39:11;20.05;;;10.15;;
52412;SDS011;38339;53.234;6.578;2022-10-22T05:41:37;24.45;;;10.32;;
52412;SDS011;38339;53.234;6.578;2022-10-22T05:44:03;14.77;;;9.77;;
52412;SDS011;38339;53.234;6.578;2022-10-22T05:46:31;15.35;;;10.20;;
52412;SDS011;38339;53.234;6.578;2022-10-22T05:49:00;19.63;;;10.68;;
52412;SDS011;38339;53.234;6.578;2022-10-22T05:51:28;20.02;;;10.75;;
52412;SDS011;38339;53.234;6.578;2022-10-22T05:53:56;16.98;;;10.13;;
52412;SDS011;38339;53.234;6.578;2022-10-22T05:56:24;15.95;;;9.80;;
52412;SDS011;38339;53.234;6.578;2022-10-22T05:58:51;15.30;;;9.70;;
52412;SDS011;38339;53.234;6.578;2022-10-22T06:03:44;14.82;;;10.23;;
52412;SDS011;38339;53.234;6.578;2022-10-22T06:06:16;16.83;;;10.75;;
52412;SDS011;38339;53.234;6.578;2022-10-22T06:09:06;15.07;;;10.52;;
52412;SDS011;38339;53.234;6.578;2022-10-22T06:11:35;18.30;;;10.20;;
52412;SDS011;38339;53.234;6.578;2022-10-22T06:14:01;17.35;;;10.32;;
52412;SDS011;38339;53.234;6.578;2022-10-22T06:16:28;17.90;;;10.15;;
52412;SDS011;38339;53.234;6.578;2022-10-22T06:18:54;15.02;;;10.50;;
52412;SDS011;38339;53.234;6.578;2022-10-22T06:21:20;20.35;;;10.77;;
52412;SDS011;38339;53.234;6.578;2022-10-22T06:23:46;16.27;;;10.10;;
52412;SDS011;38339;53.234;6.578;2022-10-22T06:26:11;15.50;;;10.48;;
52412;SDS011;38339;53.234;6.578;2022-10-22T06:28:37;20.33;;;11.18;;
52412;SDS011;38339;53.234;6.578;2022-10-22T06:31:03;15.30;;;10.30;;
52412;SDS011;38339;53.234;6.578;2022-10-22T06:33:30;16.25;;;10.00;;
52412;SDS011;38339;53.234;6.578;2022-10-22T06:36:30;18.02;;;9.82;;
52412;SDS011;38339;53.234;6.578;2022-10-22T06:38:53;15.70;;;10.10;;
52412;SDS011;38339;53.234;6.578;2022-10-22T06:41:19;19.33;;;9.68;;
52412;SDS011;38339;53.234;6.578;2022-10-22T06:43:45;16.20;;;9.50;;
52412;SDS011;38339;53.234;6.578;2022-10-22T06:46:12;16.05;;;9.38;;
52412;SDS011;38339;53.234;6.578;2022-10-22T06:48:39;16.30;;;9.88;;
52412;SDS011;38339;53.234;6.578;2022-10-22T06:51:11;17.63;;;10.35;;
52412;SDS011;38339;53.234;6.578;2022-10-22T06:53:37;17.63;;;9.10;;
52412;SDS011;38339;53.234;6.578;2022-10-22T06:56:07;19.13;;;9.45;;
52412;SDS011;38339;53.234;6.578;2022-10-22T06:58:35;12.68;;;9.55;;
52412;SDS011;38339;53.234;6.578;2022-10-22T07:01:06;16.00;;;9.55;;
52412;SDS011;38339;53.234;6.578;2022-10-22T07:03:37;16.27;;;10.50;;
52412;SDS011;38339;53.234;6.578;2022-10-22T07:06:05;16.38;;;9.55;;
52412;SDS011;38339;53.234;6.578;2022-10-22T07:08:32;18.73;;;9.85;;
52412;SDS011;38339;53.234;6.578;2022-10-22T07:11:05;14.43;;;9.55;;
52412;SDS011;38339;53.234;6.578;2022-10-22T07:13:40;13.20;;;8.70;;
52412;SDS011;38339;53.234;6.578;2022-10-22T07:16:06;15.35;;;9.13;;
52412;SDS011;38339;53.234;6.578;2022-10-22T07:18:33;15.82;;;9.32;;
52412;SDS011;38339;53.234;6.578;2022-10-22T07:21:00;17.90;;;9.30;;
52412;SDS011;38339;53.234;6.578;2022-10-22T07:23:26;15.95;;;9.32;;
52412;SDS011;38339;53.234;6.578;2022-10-22T07:25:53;14.15;;;8.75;;
52412;SDS011;38339;53.234;6.578;2022-10-22T07:28:19;16.00;;;9.10;;
52412;SDS011;38339;53.234;6.578;2022-10-22T07:30:45;14.43;;;8.90;;
52412;SDS011;38339;53.234;6.578;2022-10-22T07:33:11;13.57;;;8.52;;
52412;SDS011;38339;53.234;6.578;2022-10-22T07:35:37;15.68;;;8.20;;
52412;SDS011;38339;53.234;6.578;2022-10-22T07:38:03;15.57;;;8.48;;
52412;SDS011;38339;53.234;6.578;2022-10-22T07:40:30;17.30;;;8.13;;
52412;SDS011;38339;53.234;6.578;2022-10-22T07:42:56;16.90;;;8.18;;
52412;SDS011;38339;53.234;6.578;2022-10-22T07:45:21;16.25;;;9.00;;
52412;SDS011;38339;53.234;6.578;2022-10-22T07:47:47;13.77;;;7.95;;
52412;SDS011;38339;53.234;6.578;2022-10-22T07:50:13;15.95;;;8.48;;
52412;SDS011;38339;53.234;6.578;2022-10-22T07:52:40;19.98;;;8.68;;
52412;SDS011;38339;53.234;6.578;2022-10-22T07:55:06;13.13;;;7.90;;
52412;SDS011;38339;53.234;6.578;2022-10-22T07:57:32;14.68;;;7.35;;
52412;SDS011;38339;53.234;6.578;2022-10-22T07:59:57;15.95;;;7.78;;
52412;SDS011;38339;53.234;6.578;2022-10-22T08:02:23;16.35;;;8.13;;
52412;SDS011;38339;53.234;6.578;2022-10-22T08:04:49;13.55;;;7.60;;
52412;SDS011;38339;53.234;6.578;2022-10-22T08:07:16;15.10;;;7.85;;
52412;SDS011;38339;53.234;6.578;2022-10-22T08:09:42;19.80;;;7.65;;
52412;SDS011;38339;53.234;6.578;2022-10-22T08:12:08;18.42;;;8.07;;
52412;SDS011;38339;53.234;6.578;2022-10-22T08:14:34;14.82;;;8.10;;
52412;SDS011;38339;53.234;6.578;2022-10-22T08:16:59;11.32;;;7.60;;
52412;SDS011;38339;53.234;6.578;2022-10-22T08:19:25;14.93;;;8.00;;
52412;SDS011;38339;53.234;6.578;2022-10-22T08:21:53;14.57;;;7.72;;
52412;SDS011;38339;53.234;6.578;2022-10-22T08:24:18;16.13;;;7.55;;
52412;SDS011;38339;53.234;6.578;2022-10-22T08:26:44;16.02;;;8.20;;
52412;SDS011;38339;53.234;6.578;2022-10-22T08:29:10;13.63;;;7.50;;
52412;SDS011;38339;53.234;6.578;2022-10-22T08:31:35;16.90;;;7.82;;
52412;SDS011;38339;53.234;6.578;2022-10-22T08:34:01;17.10;;;7.95;;
52412;SDS011;38339;53.234;6.578;2022-10-22T08:36:29;14.18;;;7.35;;
52412;SDS011;38339;53.234;6.578;2022-10-22T08:38:55;19.17;;;8.20;;
52412;SDS011;38339;53.234;6.578;2022-10-22T08:41:21;19.23;;;9.95;;
52412;SDS011;38339;53.234;6.578;2022-10-22T08:47:00;15.23;;;7.57;;
52412;SDS011;38339;53.234;6.578;2022-10-22T08:49:51;13.55;;;6.85;;
52412;SDS011;38339;53.234;6.578;2022-10-22T08:52:18;12.85;;;7.30;;
52412;SDS011;38339;53.234;6.578;2022-10-22T08:54:50;14.38;;;6.85;;
52412;SDS011;38339;53.234;6.578;2022-10-22T08:57:41;14.23;;;7.10;;
52412;SDS011;38339;53.234;6.578;2022-10-22T09:08:16;13.35;;;6.30;;
52412;SDS011;38339;53.234;6.578;2022-10-22T09:10:47;15.48;;;6.50;;
52412;SDS011;38339;53.234;6.578;2022-10-22T09:13:17;15.93;;;6.15;;
52412;SDS011;38339;53.234;6.578;2022-10-22T09:15:48;17.23;;;6.03;;
52412;SDS011;38339;53.234;6.578;2022-10-22T09:18:35;16.42;;;6.43;;
52412;SDS011;38339;53.234;6.578;2022-10-22T09:21:12;14.43;;;6.05;;
52412;SDS011;38339;53.234;6.578;2022-10-22T09:24:03;17.35;;;6.45;;
52412;SDS011;38339;53.234;6.578;2022-10-22T09:26:37;16.52;;;6.68;;
52412;SDS011;38339;53.234;6.578;2022-10-22T09:29:04;12.45;;;5.10;;
52412;SDS011;38339;53.234;6.578;2022-10-22T09:31:30;12.70;;;5.50;;
52412;SDS011;38339;53.234;6.578;2022-10-22T09:33:57;17.35;;;6.45;;
52412;SDS011;38339;53.234;6.578;2022-10-22T09:36:27;14.80;;;5.45;;
52412;SDS011;38339;53.234;6.578;2022-10-22T09:38:53;16.60;;;5.40;;
52412;SDS011;38339;53.234;6.578;2022-10-22T09:41:22;13.32;;;5.22;;
52412;SDS011;38339;53.234;6.578;2022-10-22T09:43:49;15.85;;;5.13;;
52412;SDS011;38339;53.234;6.578;2022-10-22T09:46:16;14.60;;;4.78;;
52412;SDS011;38339;53.234;6.578;2022-10-22T09:48:48;10.73;;;5.25;;
52412;SDS011;38339;53.234;6.578;2022-10-22T09:53:47;15.15;;;5.82;;
52412;SDS011;38339;53.234;6.578;2022-10-22T09:56:33;18.25;;;8.43;;
52412;SDS011;38339;53.234;6.578;2022-10-22T09:59:00;13.00;;;5.90;;
52412;SDS011;38339;53.234;6.578;2022-10-22T10:01:28;17.13;;;5.97;;
52412;SDS011;38339;53.234;6.578;2022-10-22T10:04:03;12.15;;;5.03;;
52412;SDS011;38339;53.234;6.578;2022-10-22T10:06:34;11.15;;;5.25;;
52412;SDS011;38339;53.234;6.578;2022-10-22T10:09:36;13.77;;;5.72;;
52412;SDS011;38339;53.234;6.578;2022-10-22T10:12:08;18.88;;;6.28;;
52412;SDS011;38339;53.234;6.578;2022-10-22T10:23:26;15.77;;;6.03;;
52412;SDS011;38339;53.234;6.578;2022-10-22T10:26:11;10.30;;;5.45;;
52412;SDS011;38339;53.234;6.578;2022-10-22T10:35:19;11.88;;;6.25;;
52412;SDS011;38339;53.234;6.578;2022-10-22T10:40:50;14.50;;;6.10;;
52412;SDS011;38339;53.234;6.578;2022-10-22T10:43:26;15.50;;;6.25;;
52412;SDS011;38339;53.234;6.578;2022-10-22T11:00:10;11.10;;;6.82;;
52412;SDS011;38339;53.234;6.578;2022-10-22T11:08:06;16.20;;;6.28;;
52412;SDS011;38339;53.234;6.578;2022-10-22T11:15:51;16.73;;;6.13;;
52412;SDS011;38339;53.234;6.578;2022-10-22T11:18:30;14.63;;;6.50;;
52412;SDS011;38339;53.234;6.578;2022-10-22T11:23:45;8.80;;;5.82;;
52412;SDS011;38339;53.234;6.578;2022-10-22T11:26:26;10.10;;;5.07;;
52412;SDS011;38339;53.234;6.578;2022-10-22T11:29:04;9.73;;;6.25;;
52412;SDS011;38339;53.234;6.578;2022-10-22T11:31:35;9.75;;;5.78;;
52412;SDS011;38339;53.234;6.578;2022-10-22T11:36:42;10.23;;;5.80;;
52412;SDS011;38339;53.234;6.578;2022-10-22T11:42:34;13.65;;;6.28;;
52412;SDS011;38339;53.234;6.578;2022-10-22T11:50:50;14.75;;;6.82;;
52412;SDS011;38339;53.234;6.578;2022-10-22T11:53:25;14.00;;;7.95;;
52412;SDS011;38339;53.234;6.578;2022-10-22T11:55:57;14.80;;;7.80;;
52412;SDS011;38339;53.234;6.578;2022-10-22T12:06:51;14.60;;;8.63;;
52412;SDS011;38339;53.234;6.578;2022-10-22T12:09:22;14.73;;;7.82;;
52412;SDS011;38339;53.234;6.578;2022-10-22T12:11:50;15.93;;;8.07;;
52412;SDS011;38339;53.234;6.578;2022-10-22T12:17:07;12.25;;;7.95;;
52412;SDS011;38339;53.234;6.578;2022-10-22T12:25:02;13.82;;;7.70;;
52412;SDS011;38339;53.234;6.578;2022-10-22T12:27:40;15.40;;;7.53;;
52412;SDS011;38339;53.234;6.578;2022-10-22T12:30:16;12.90;;;6.97;;
52412;SDS011;38339;53.234;6.578;2022-10-22T12:32:43;16.27;;;8.63;;
52412;SDS011;38339;53.234;6.578;2022-10-22T12:35:20;15.55;;;8.65;;
52412;SDS011;38339;53.234;6.578;2022-10-22T12:37:48;16.20;;;7.70;;
52412;SDS011;38339;53.234;6.578;2022-10-22T12:40:23;13.35;;;7.35;;
52412;SDS011;38339;53.234;6.578;2022-10-22T12:42:54;15.38;;;7.72;;
52412;SDS011;38339;53.234;6.578;2022-10-22T12:45:22;14.27;;;7.00;;
52412;SDS011;38339;53.234;6.578;2022-10-22T12:47:56;17.58;;;7.70;;
52412;SDS011;38339;53.234;6.578;2022-10-22T12:50:38;14.90;;;6.65;;
52412;SDS011;38339;53.234;6.578;2022-10-22T12:53:14;10.77;;;6.10;;
52412;SDS011;38339;53.234;6.578;2022-10-22T12:55:46;12.70;;;6.00;;
52412;SDS011;38339;53.234;6.578;2022-10-22T12:58:16;12.43;;;6.25;;
52412;SDS011;38339;53.234;6.578;2022-10-22T13:00:47;14.52;;;6.88;;
52412;SDS011;38339;53.234;6.578;2022-10-22T13:03:23;8.95;;;6.18;;
52412;SDS011;38339;53.234;6.578;2022-10-22T13:06:13;15.35;;;6.07;;
52412;SDS011;38339;53.234;6.578;2022-10-22T13:11:30;13.80;;;5.78;;
52412;SDS011;38339;53.234;6.578;2022-10-22T13:14:02;14.63;;;5.60;;
52412;SDS011;38339;53.234;6.578;2022-10-22T13:16:29;13.95;;;4.93;;
52412;SDS011;38339;53.234;6.578;2022-10-22T13:18:56;15.00;;;4.70;;
52412;SDS011;38339;53.234;6.578;2022-10-22T13:21:32;7.78;;;4.68;;
52412;SDS011;38339;53.234;6.578;2022-10-22T13:24:03;10.27;;;4.15;;
52412;SDS011;38339;53.234;6.578;2022-10-22T13:26:43;8.70;;;4.00;;
52412;SDS011;38339;53.234;6.578;2022-10-22T13:29:14;12.02;;;4.10;;
52412;SDS011;38339;53.234;6.578;2022-10-22T13:31:47;12.27;;;4.45;;
52412;SDS011;38339;53.234;6.578;2022-10-22T13:34:19;8.32;;;4.18;;
52412;SDS011;38339;53.234;6.578;2022-10-22T13:36:46;8.45;;;4.43;;
52412;SDS011;38339;53.234;6.578;2022-10-22T13:39:20;14.25;;;4.35;;
52412;SDS011;38339;53.234;6.578;2022-10-22T13:41:47;10.63;;;4.25;;
52412;SDS011;38339;53.234;6.578;2022-10-22T13:44:17;11.98;;;3.78;;
52412;SDS011;38339;53.234;6.578;2022-10-22T13:46:43;14.75;;;4.18;;
52412;SDS011;38339;53.234;6.578;2022-10-22T13:49:14;12.18;;;3.42;;
52412;SDS011;38339;53.234;6.578;2022-10-22T13:51:42;11.95;;;3.45;;
52412;SDS011;38339;53.234;6.578;2022-10-22T13:54:13;9.50;;;3.08;;
52412;SDS011;38339;53.234;6.578;2022-10-22T13:56:44;7.72;;;2.72;;
52412;SDS011;38339;53.234;6.578;2022-10-22T13:59:10;9.05;;;2.90;;
52412;SDS011;38339;53.234;6.578;2022-10-22T14:01:36;9.57;;;2.83;;
52412;SDS011;38339;53.234;6.578;2022-10-22T14:04:02;10.70;;;2.85;;
52412;SDS011;38339;53.234;6.578;2022-10-22T14:06:31;10.40;;;3.40;;
52412;SDS011;38339;53.234;6.578;2022-10-22T14:09:02;7.45;;;2.60;;
52412;SDS011;38339;53.234;6.578;2022-10-22T14:11:30;9.43;;;2.95;;
52412;SDS011;38339;53.234;6.578;2022-10-22T14:13:56;10.60;;;2.75;;
52412;SDS011;38339;53.234;6.578;2022-10-22T14:16:23;12.45;;;3.35;;
52412;SDS011;38339;53.234;6.578;2022-10-22T14:18:50;14.15;;;3.10;;
52412;SDS011;38339;53.234;6.578;2022-10-22T14:21:17;8.55;;;3.10;;
52412;SDS011;38339;53.234;6.578;2022-10-22T14:23:44;7.82;;;3.05;;
52412;SDS011;38339;53.234;6.578;2022-10-22T14:26:19;7.82;;;2.67;;
52412;SDS011;38339;53.234;6.578;2022-10-22T14:28:48;11.02;;;2.97;;
52412;SDS011;38339;53.234;6.578;2022-10-22T14:31:13;9.93;;;3.25;;
52412;SDS011;38339;53.234;6.578;2022-10-22T14:33:46;14.20;;;3.72;;
52412;SDS011;38339;53.234;6.578;2022-10-22T14:36:13;8.15;;;2.78;;
52412;SDS011;38339;53.234;6.578;2022-10-22T14:38:41;10.52;;;3.05;;
52412;SDS011;38339;53.234;6.578;2022-10-22T14:41:28;9.13;;;2.20;;
52412;SDS011;38339;53.234;6.578;2022-10-22T14:43:53;7.25;;;2.20;;
52412;SDS011;38339;53.234;6.578;2022-10-22T14:46:19;11.13;;;2.40;;
52412;SDS011;38339;53.234;6.578;2022-10-22T14:48:45;8.40;;;2.00;;
52412;SDS011;38339;53.234;6.578;2022-10-22T14:51:20;9.50;;;2.15;;
52412;SDS011;38339;53.234;6.578;2022-10-22T14:53:47;9.25;;;2.30;;
52412;SDS011;38339;53.234;6.578;2022-10-22T14:56:14;5.28;;;1.95;;
52412;SDS011;38339;53.234;6.578;2022-10-22T14:58:44;7.07;;;2.17;;
52412;SDS011;38339;53.234;6.578;2022-10-22T15:01:10;5.45;;;1.90;;
52412;SDS011;38339;53.234;6.578;2022-10-22T15:03:35;6.13;;;2.05;;
52412;SDS011;38339;53.234;6.578;2022-10-22T15:06:01;8.10;;;1.92;;
52412;SDS011;38339;53.234;6.578;2022-10-22T15:08:28;6.03;;;2.00;;
52412;SDS011;38339;53.234;6.578;2022-10-22T15:11:12;6.78;;;1.95;;
52412;SDS011;38339;53.234;6.578;2022-10-22T15:13:38;9.98;;;2.13;;
52412;SDS011;38339;53.234;6.578;2022-10-22T15:16:05;10.80;;;2.33;;
52412;SDS011;38339;53.234;6.578;2022-10-22T15:18:32;7.68;;;2.10;;
52412;SDS011;38339;53.234;6.578;2022-10-22T15:20:59;8.30;;;2.10;;
52412;SDS011;38339;53.234;6.578;2022-10-22T15:23:29;10.35;;;2.67;;
52412;SDS011;38339;53.234;6.578;2022-10-22T15:25:55;6.85;;;2.53;;
52412;SDS011;38339;53.234;6.578;2022-10-22T15:28:21;8.05;;;2.15;;
52412;SDS011;38339;53.234;6.578;2022-10-22T15:30:52;12.20;;;3.05;;
52412;SDS011;38339;53.234;6.578;2022-10-22T15:33:21;11.88;;;2.97;;
52412;SDS011;38339;53.234;6.578;2022-10-22T15:35:47;10.13;;;2.80;;
52412;SDS011;38339;53.234;6.578;2022-10-22T15:38:13;6.32;;;2.03;;
52412;SDS011;38339;53.234;6.578;2022-10-22T15:40:39;11.15;;;2.72;;
52412;SDS011;38339;53.234;6.578;2022-10-22T15:43:04;8.15;;;2.80;;
52412;SDS011;38339;53.234;6.578;2022-10-22T15:45:30;8.65;;;2.42;;
52412;SDS011;38339;53.234;6.578;2022-10-22T15:47:56;19.70;;;3.72;;
52412;SDS011;38339;53.234;6.578;2022-10-22T15:50:23;14.90;;;2.85;;
52412;SDS011;38339;53.234;6.578;2022-10-22T15:52:49;14.50;;;3.63;;
52412;SDS011;38339;53.234;6.578;2022-10-22T15:55:15;12.82;;;2.90;;
52412;SDS011;38339;53.234;6.578;2022-10-22T15:57:42;14.98;;;3.40;;
52412;SDS011;38339;53.234;6.578;2022-10-22T16:00:07;13.25;;;3.53;;
52412;SDS011;38339;53.234;6.578;2022-10-22T16:02:34;15.43;;;4.72;;
52412;SDS011;38339;53.234;6.578;2022-10-22T16:04:59;12.77;;;3.00;;
52412;SDS011;38339;53.234;6.578;2022-10-22T16:07:25;15.57;;;3.05;;
52412;SDS011;38339;53.234;6.578;2022-10-22T16:09:55;14.75;;;3.38;;
52412;SDS011;38339;53.234;6.578;2022-10-22T16:12:23;15.98;;;3.40;;
52412;SDS011;38339;53.234;6.578;2022-10-22T16:14:49;16.58;;;3.45;;
52412;SDS011;38339;53.234;6.578;2022-10-22T16:17:15;18.40;;;3.72;;
52412;SDS011;38339;53.234;6.578;2022-10-22T16:19:41;18.20;;;4.22;;
52412;SDS011;38339;53.234;6.578;2022-10-22T16:22:08;15.20;;;3.55;;
52412;SDS011;38339;53.234;6.578;2022-10-22T16:24:36;17.85;;;3.50;;
52412;SDS011;38339;53.234;6.578;2022-10-22T16:27:05;16.92;;;3.92;;
52412;SDS011;38339;53.234;6.578;2022-10-22T16:29:31;17.30;;;4.22;;
52412;SDS011;38339;53.234;6.578;2022-10-22T16:31:57;14.10;;;3.65;;
52412;SDS011;38339;53.234;6.578;2022-10-22T16:34:24;19.00;;;3.88;;
52412;SDS011;38339;53.234;6.578;2022-10-22T16:36:51;15.45;;;4.10;;